Terminal Aerodrome Forecast
Issued by NWS Newport/Morehead City, NC

Current Version | Previous Version | Text Only | Print | Product List | Glossary On
Versions: 1 2 3 4 5 6 7 8 9 10 11 12 13 14 15 16 17
000
FTUS42 KMHX 210500
TAFEWN
TAF
KEWN 210540Z 2106/2206 23004KT P6SM SCT050 BKN120
     FM211500 26006KT P6SM BKN050
     FM220300 31006KT P6SM SCT050=

USA.gov is the U.S. government's official web portal to all federal, state and local government web resources and services.